Abel Tasman — PCVM — position and weather

sailwx.info

Track history (hours):
 
Tides and Currents Weather Stations Pressure Air Temp Water Temp Dewpoint Dewpoint Depression Visibility Wind Speed Wind Dir Waves Ship Positions

Abel Tasman (Netherlands)

Last reported at 2017-Aug-22 13:54 UTC. Time now 2017-Aug-22 22:38 UTC.
Position N 54°58' E 010°16'.

Length 38 m.

Type: Sailing vessel. MMSI: 222000333.

Date/timePositionNaut miles runAvg speedWind from/ knotsBaromVisibWave heightAir tempDewpointWater temp
2017-Aug-22 13:54N 54°58' E 010°16'1 2.7
2017-Aug-22 13:28N 54°57' E 010°17'2 5.0
2017-Aug-22 12:58N 54°59' E 010°19'1 2.2
2017-Aug-22 12:26N 54°58' E 010°21'2 3.8
2017-Aug-22 11:59N 54°56' E 010°21'1 1.5
2017-Aug-22 11:30N 54°56' E 010°22'1 2.8
2017-Aug-22 11:00N 54°57' E 010°24'2 3.4
2017-Aug-22 10:30N 54°55' E 010°24'3 5.7
2017-Aug-22 10:00N 54°58' E 010°27'3 5.6
2017-Aug-22 09:30N 54°60' E 010°30'2 4.8
2017-Aug-22 09:00N 55°02' E 010°32'2 3.9
2017-Aug-22 08:29N 55°03' E 010°35'1 2.4
2017-Aug-22 08:00N 55°03' E 010°37'0 0.2
2017-Aug-22 07:26N 55°03' E 010°37'0 0.0
2017-Aug-22 06:59N 55°03' E 010°37'0 0.0
2017-Aug-22 06:26N 55°03' E 010°37'0 0.0
2017-Aug-22 05:59N 55°03' E 010°37'0 0.0
2017-Aug-22 05:29N 55°03' E 010°37'0 0.0
2017-Aug-22 04:59N 55°03' E 010°37'0 0.0
2017-Aug-22 04:23N 55°03' E 010°37'0 0.0
2017-Aug-22 03:50N 55°03' E 010°37'0 0.0
2017-Aug-22 03:23N 55°03' E 010°37'0 0.0
2017-Aug-22 02:59N 55°03' E 010°37'0 0.0
2017-Aug-22 02:23N 55°03' E 010°37'0 0.0
2017-Aug-22 01:59N 55°03' E 010°37'0 0.0
2017-Aug-22 01:29N 55°03' E 010°37'0 0.0
2017-Aug-22 00:59N 55°03' E 010°37'0 0.0
2017-Aug-22 00:29N 55°03' E 010°37'0 0.0
2017-Aug-21 23:59N 55°03' E 010°37'0 0.0
2017-Aug-21 23:29N 55°03' E 010°37'0 0.0
2017-Aug-21 22:59N 55°03' E 010°37'0 0.0
2017-Aug-21 22:29N 55°03' E 010°37'0 0.0
2017-Aug-21 21:56N 55°03' E 010°37'0 0.0
2017-Aug-21 21:29N 55°03' E 010°37'0 0.0
2017-Aug-21 20:59N 55°03' E 010°37'0 0.0
2017-Aug-21 20:29N 55°03' E 010°37'0 0.0
2017-Aug-21 19:59N 55°03' E 010°37'0 0.0
2017-Aug-21 19:29N 55°03' E 010°37'0 0.0
2017-Aug-21 18:56N 55°03' E 010°37'0 0.0
2017-Aug-21 18:29N 55°03' E 010°37'0 0.0
2017-Aug-21 17:59N 55°03' E 010°37'0 0.0
2017-Aug-21 17:23N 55°03' E 010°37'0 0.0
2017-Aug-21 16:59N 55°03' E 010°37'0 0.0
2017-Aug-21 16:29N 55°03' E 010°37'0 0.0
2017-Aug-21 15:59N 55°03' E 010°37'0 0.0
2017-Aug-21 15:29N 55°03' E 010°37'0 0.0
2017-Aug-21 14:59N 55°03' E 010°37'0 0.0
2017-Aug-21 14:29N 55°03' E 010°37'0 0.0
2017-Aug-21 13:59N 55°03' E 010°37'0 0.2
2017-Aug-21 13:28N 55°03' E 010°37'2 5.0
2017-Aug-21 13:00N 55°02' E 010°40'3 5.2
2017-Aug-21 12:30N 55°00' E 010°44'2 3.4
2017-Aug-21 12:01N 55°02' E 010°45'3 5.2
2017-Aug-21 11:31N 55°04' E 010°47'3 5.7
2017-Aug-21 11:01N 55°07' E 010°48'3 5.2
2017-Aug-21 10:30N 55°10' E 010°49'3 6.5
2017-Aug-21 09:58N 55°13' E 010°50'3 6.2
2017-Aug-21 09:30N 55°16' E 010°49'2 4.7
2017-Aug-21 08:59N 55°18' E 010°48'0 0.7
2017-Aug-21 08:28N 55°18' E 010°47'0 0.0
2017-Aug-21 07:58N 55°18' E 010°47'0 0.0
2017-Aug-21 07:28N 55°18' E 010°47'0 0.0
2017-Aug-21 06:59N 55°18' E 010°47'0 0.0
2017-Aug-21 06:17N 55°18' E 010°47'0 0.0
2017-Aug-21 05:47N 55°18' E 010°47'0 0.0
2017-Aug-21 05:26N 55°18' E 010°47'0 0.0
2017-Aug-21 04:56N 55°18' E 010°47'0 0.0
2017-Aug-21 04:29N 55°18' E 010°47'0 0.0
2017-Aug-21 03:59N 55°18' E 010°47'0 0.0
2017-Aug-21 03:20N 55°18' E 010°47'0 0.0
2017-Aug-21 02:59N 55°18' E 010°47'0 0.0
2017-Aug-21 02:29N 55°18' E 010°47'0 0.0
2017-Aug-21 01:53N 55°18' E 010°47'0 0.0
2017-Aug-21 01:26N 55°18' E 010°47'0 0.0
2017-Aug-21 00:59N 55°18' E 010°47'0 0.0
2017-Aug-21 00:23N 55°18' E 010°47'0 0.0
2017-Aug-20 23:59N 55°18' E 010°47'0 0.0
2017-Aug-20 23:26N 55°18' E 010°47'0 0.0
2017-Aug-20 22:53N 55°18' E 010°47'0 0.0
2017-Aug-20 22:17N 55°18' E 010°47'0 0.1
2017-Aug-20 21:59N 55°18' E 010°47'0 0.0
2017-Aug-20 21:20N 55°18' E 010°47'0 0.0
2017-Aug-20 20:53N 55°18' E 010°47'0 0.0
2017-Aug-20 20:23N 55°18' E 010°47'0 0.0
2017-Aug-20 19:56N 55°18' E 010°47'0 0.0
2017-Aug-20 19:29N 55°18' E 010°47'0 0.0
2017-Aug-20 18:50N 55°18' E 010°47'0 0.0
2017-Aug-20 16:11N 55°18' E 010°47'0 0.2
2017-Aug-20 16:00N 55°18' E 010°47'3 5.2
2017-Aug-20 15:30N 55°17' E 010°51'2 4.5
2017-Aug-20 15:00N 55°15' E 010°54'4 7.4
2017-Aug-20 14:30N 55°12' E 010°56'4 7.1
2017-Aug-20 14:00N 55°08' E 010°58'3 5.7
2017-Aug-20 13:30N 55°06' E 010°58'3 6.2
2017-Aug-20 13:00N 55°03' E 010°57'3 6.7
2017-Aug-20 12:30N 54°59' E 010°55'3 5.9
2017-Aug-20 12:00N 54°57' E 010°54'3 5.9
2017-Aug-20 11:30N 54°54' E 010°52'2 4.9
2017-Aug-20 11:00N 54°51' E 010°51'3 5.8
2017-Aug-20 10:30N 54°48' E 010°52'4 7.4
2017-Aug-20 10:00N 54°46' E 010°56'3 6.4
2017-Aug-20 09:30N 54°44' E 011°01'3 6.1
2017-Aug-20 09:00N 54°42' E 011°05'3 5.6
2017-Aug-20 08:30N 54°41' E 011°10'3 5.4
2017-Aug-20 08:00N 54°40' E 011°14'3 5.4
2017-Aug-20 07:30N 54°39' E 011°18'1 2.9
2017-Aug-20 06:59N 54°39' E 011°21'0 0.1
2017-Aug-20 06:29N 54°39' E 011°21'0 0.0
2017-Aug-20 05:59N 54°39' E 011°21'0 0.0
2017-Aug-20 05:29N 54°39' E 011°21'0 0.0
2017-Aug-20 04:59N 54°39' E 011°21'0 0.0
2017-Aug-20 04:29N 54°39' E 011°21'0 0.0
2017-Aug-20 03:59N 54°39' E 011°21'0 0.0
2017-Aug-20 03:29N 54°39' E 011°21'0 0.0
2017-Aug-20 02:59N 54°39' E 011°21'0 0.0
2017-Aug-20 02:29N 54°39' E 011°21'0 0.0
2017-Aug-20 01:59N 54°39' E 011°21'0 0.0
2017-Aug-20 01:29N 54°39' E 011°21'0 0.0
2017-Aug-20 00:59N 54°39' E 011°21'0 0.0
2017-Aug-20 00:29N 54°39' E 011°21'0 0.0
2017-Aug-19 23:59N 54°39' E 011°21'0 0.0
2017-Aug-19 23:29N 54°39' E 011°21'0 0.0
2017-Aug-19 22:59N 54°39' E 011°21'0 0.0
2017-Aug-19 22:29N 54°39' E 011°21'0 0.0
2017-Aug-19 21:59N 54°39' E 011°21'0 0.0
2017-Aug-19 21:29N 54°39' E 011°21'0 0.0
2017-Aug-19 20:59N 54°39' E 011°21'0 0.0
2017-Aug-19 20:29N 54°39' E 011°21'0 0.0
2017-Aug-19 19:59N 54°39' E 011°21'0 0.0
2017-Aug-19 19:29N 54°39' E 011°21'0 0.0
2017-Aug-19 18:59N 54°39' E 011°21'0 0.0
2017-Aug-19 18:29N 54°39' E 011°21'0 0.0
2017-Aug-19 17:59N 54°39' E 011°21'0 0.0
2017-Aug-19 17:29N 54°39' E 011°21'0 0.0
2017-Aug-19 16:59N 54°39' E 011°21'1 2.0
2017-Aug-19 16:30N 54°38' E 011°22'3 5.0
2017-Aug-19 16:00N 54°36' E 011°22'3 6.6
2017-Aug-19 15:30N 54°33' E 011°23'3 5.2
2017-Aug-19 15:00N 54°31' E 011°26'7 7.0
2017-Aug-19 14:00N 54°26' E 011°35'4 6.5
2017-Aug-19 13:24N 54°24' E 011°40'3 6.8
2017-Aug-19 12:54N 54°21' E 011°45'8 6.6
2017-Aug-19 11:44N 54°17' E 011°55'2 6.6
2017-Aug-19 11:30N 54°16' E 011°57'2 4.9
2017-Aug-19 11:00N 54°14' E 012°01'3 3.5
2017-Aug-19 10:13N 54°12' E 012°04'1 3.3
2017-Aug-19 10:00N 54°12' E 012°05'6 0.6
2017-Aug-18 23:46N 54°06' E 012°08'0 0.0
2017-Aug-18 23:30N 54°06' E 012°08'0 0.0
2017-Aug-18 11:54N 54°06' E 012°08'5 1.8
2017-Aug-18 09:14N 54°10' E 012°06'1 2.5
2017-Aug-18 08:55N 54°11' E 012°06'0 0.2
2017-Aug-18 08:16N 54°11' E 012°06'0 0.0
2017-Aug-18 07:58N 54°11' E 012°06'0 0.0
2017-Aug-18 07:25N 54°11' E 012°06'0 0.0
2017-Aug-18 01:46N 54°11' E 012°06'0 0.0
2017-Aug-18 01:28N 54°11' E 012°06'0 0.0
2017-Aug-17 21:31N 54°11' E 012°06'0 0.1
2017-Aug-17 21:28N 54°11' E 012°06'2 0.3
2017-Aug-17 14:17N 54°12' E 012°03'2 6.2
2017-Aug-17 14:00N 54°12' E 011°60'3 6.9
2017-Aug-17 13:30N 54°11' E 011°54'3 6.5
2017-Aug-17 13:01N 54°11' E 011°49'9 6.7
2017-Aug-17 11:38N 54°07' E 011°34'1 7.2
2017-Aug-17 11:30N 54°06' E 011°33'4 7.3
2017-Aug-17 11:00N 54°04' E 011°28'4 7.1
2017-Aug-17 10:30N 54°02' E 011°24'3 5.1
2017-Aug-17 10:00N 53°59' E 011°22'2 3.8
2017-Aug-17 09:30N 53°58' E 011°23'2 3.6
2017-Aug-17 09:00N 53°56' E 011°25'2 3.9
2017-Aug-17 08:30N 53°55' E 011°26'1 1.7
2017-Aug-17 07:59N 53°54' E 011°27'0 0.0
2017-Aug-17 07:29N 53°54' E 011°27'0 0.0
2017-Aug-17 06:59N 53°54' E 011°27'0 0.0
2017-Aug-17 06:29N 53°54' E 011°27'0 0.0
2017-Aug-17 05:59N 53°54' E 011°27'0 0.0
2017-Aug-17 05:29N 53°54' E 011°27'0 0.0
2017-Aug-17 04:59N 53°54' E 011°27'0 0.0
2017-Aug-17 04:29N 53°54' E 011°27'0 0.0
2017-Aug-17 03:59N 53°54' E 011°27'0 0.0
2017-Aug-17 03:29N 53°54' E 011°27'0 0.0
2017-Aug-17 02:59N 53°54' E 011°27'0 0.0
2017-Aug-17 02:29N 53°54' E 011°27'0 0.0
2017-Aug-17 01:59N 53°54' E 011°27'0 0.0
2017-Aug-17 01:29N 53°54' E 011°27'0 0.0
2017-Aug-17 00:59N 53°54' E 011°27'0 0.0
2017-Aug-17 00:29N 53°54' E 011°27'0 0.0
2017-Aug-16 23:59N 53°54' E 011°27'0 0.0
2017-Aug-16 23:29N 53°54' E 011°27'0 0.0
2017-Aug-16 22:59N 53°54' E 011°27'0 0.0
2017-Aug-16 22:29N 53°54' E 011°27'0 0.0
2017-Aug-16 21:59N 53°54' E 011°27'0 0.0
2017-Aug-16 21:29N 53°54' E 011°27'0 0.0
2017-Aug-16 20:59N 53°54' E 011°27'0 0.0
2017-Aug-16 20:29N 53°54' E 011°27'0 0.0
2017-Aug-16 19:59N 53°54' E 011°27'0 0.0
2017-Aug-16 19:29N 53°54' E 011°27'0 0.0
2017-Aug-16 18:59N 53°54' E 011°27'0 0.0
2017-Aug-16 18:29N 53°54' E 011°27'0 0.0
2017-Aug-16 17:59N 53°54' E 011°27'0 0.0
2017-Aug-16 17:29N 53°54' E 011°27'0 0.0
2017-Aug-16 16:59N 53°54' E 011°27'0 0.0
2017-Aug-16 16:29N 53°54' E 011°27'0 0.0
2017-Aug-16 15:59N 53°54' E 011°27'0 0.0
2017-Aug-16 15:29N 53°54' E 011°27'0 0.0
2017-Aug-16 14:59N 53°54' E 011°27'1 1.8
2017-Aug-16 14:31N 53°55' E 011°26'2 4.0
2017-Aug-16 14:01N 53°56' E 011°25'2 4.2
2017-Aug-16 13:30N 53°58' E 011°23'3 5.0
2017-Aug-16 13:01N 54°00' E 011°20'2 3.1
2017-Aug-16 12:28N 54°02' E 011°19'2 5.0
2017-Aug-16 12:00N 54°02' E 011°15'3 5.2
2017-Aug-16 11:30N 54°02' E 011°11'2 0.1
2017-Aug-15 12:08N 54°04' E 011°12'1 5.6
2017-Aug-15 12:00N 54°04' E 011°14'3 5.8
2017-Aug-15 11:30N 54°05' E 011°18'3 6.1
2017-Aug-15 10:59N 54°06' E 011°23'3 6.2
2017-Aug-15 10:31N 54°07' E 011°28'11 6.6
2017-Aug-15 08:52N 54°10' E 011°46'1 2.6
2017-Aug-15 08:31N 54°09' E 011°47'0 0.5
2017-Aug-15 08:00N 54°09' E 011°46'0 0.0
2017-Aug-15 07:28N 54°09' E 011°46'0 0.0
2017-Aug-15 06:58N 54°09' E 011°46'0 0.0
2017-Aug-15 06:28N 54°09' E 011°46'0 0.0
2017-Aug-15 05:52N 54°09' E 011°46'0 0.0
2017-Aug-15 05:28N 54°09' E 011°46'0 0.0
2017-Aug-15 04:58N 54°09' E 011°46'0 0.0
2017-Aug-15 04:28N 54°09' E 011°46'0 0.0
2017-Aug-15 03:58N 54°09' E 011°46'0 0.0
2017-Aug-15 02:37N 54°09' E 011°46'0 0.0
2017-Aug-15 02:07N 54°09' E 011°46'0 0.0
2017-Aug-15 00:46N 54°09' E 011°46'0 0.0
2017-Aug-15 00:25N 54°09' E 011°46'0 0.0
2017-Aug-14 23:58N 54°09' E 011°46'0 0.0
2017-Aug-14 23:01N 54°09' E 011°46'0 0.0
2017-Aug-14 22:58N 54°09' E 011°46'0 0.0
2017-Aug-14 22:28N 54°09' E 011°46'0 0.0
2017-Aug-14 21:58N 54°09' E 011°46'0 0.0
2017-Aug-14 21:28N 54°09' E 011°46'0 0.0
2017-Aug-14 20:58N 54°09' E 011°46'0 0.0
2017-Aug-14 20:07N 54°09' E 011°46'0 0.0
2017-Aug-14 19:46N 54°09' E 011°46'0 0.0
2017-Aug-14 19:28N 54°09' E 011°46'0 0.0
2017-Aug-14 18:58N 54°09' E 011°46'0 0.0
2017-Aug-14 18:16N 54°09' E 011°46'0 0.0
2017-Aug-14 17:58N 54°09' E 011°46'0 0.0
2017-Aug-14 16:46N 54°09' E 011°46'0 0.0
2017-Aug-14 16:28N 54°09' E 011°46'0 0.0
2017-Aug-14 16:00N 54°09' E 011°46'0 0.0
2017-Aug-14 15:30N 54°09' E 011°46'9 4.5
2017-Aug-14 13:35N 54°17' E 011°51'0 4.1
2017-Aug-14 13:30N 54°18' E 011°51'2 5.0
2017-Aug-14 13:00N 54°18' E 011°55'4 4.6
2017-Aug-14 12:10N 54°18' E 012°02'1 4.4
2017-Aug-14 11:56N 54°17' E 012°03'2 5.1
2017-Aug-14 11:30N 54°15' E 012°05'8 4.8
2017-Aug-14 09:56N 54°08' E 012°06'2 0.7
2017-Aug-14 06:29N 54°06' E 012°08'0 0.0
2017-Aug-14 05:56N 54°06' E 012°08'0 0.0
2017-Aug-14 05:29N 54°06' E 012°08'0 0.0
2017-Aug-14 04:56N 54°06' E 012°08'0 0.0
2017-Aug-13 23:47N 54°06' E 012°08'0 0.0
2017-Aug-13 23:29N 54°06' E 012°08'0 0.0
2017-Aug-13 15:14N 54°06' E 012°08'0 0.9
2017-Aug-13 15:00N 54°06' E 012°07'5 3.8
2017-Aug-13 13:44N 54°10' E 012°06'1 4.1
2017-Aug-13 13:25N 54°12' E 012°06'2 3.9
2017-Aug-13 12:57N 54°13' E 012°07'3 4.7
2017-Aug-13 12:13N 54°10' E 012°06'3 3.6
2017-Aug-13 11:30N 54°07' E 012°06'2 3.7
2017-Aug-13 10:56N 54°06' E 012°08'0 0.0
2017-Aug-13 10:29N 54°06' E 012°08'0 0.0
2017-Aug-13 08:41N 54°06' E 012°07'0 0.0
2017-Aug-13 08:26N 54°06' E 012°07'0 0.0
2017-Aug-13 06:15N 54°06' E 012°08'0 0.0
2017-Aug-13 05:57N 54°06' E 012°08'0 0.0
2017-Aug-13 03:57N 54°06' E 012°08'0 0.0
2017-Aug-13 02:30N 54°06' E 012°08'0 0.0
2017-Aug-13 00:18N 54°06' E 012°08'0 0.0
2017-Aug-13 00:00N 54°06' E 012°08'0 0.0
2017-Aug-12 21:48N 54°06' E 012°08'0 0.7
2017-Aug-12 21:26N 54°06' E 012°07'2 4.9
2017-Aug-12 21:00N 54°08' E 012°06'2 4.5
2017-Aug-12 20:29N 54°10' E 012°06'0 0.3
2017-Aug-12 19:05N 54°10' E 012°06'2 3.0
2017-Aug-12 18:17N 54°08' E 012°06'1 4.2
2017-Aug-12 18:00N 54°07' E 012°06'2 2.7
2017-Aug-12 17:26N 54°06' E 012°07'0 0.2
2017-Aug-12 16:44N 54°06' E 012°08'0 0.0
2017-Aug-12 16:10N 54°06' E 012°08'0 0.0
2017-Aug-12 15:40N 54°06' E 012°08'0 0.0
2017-Aug-12 14:43N 54°06' E 012°08'0 0.0
2017-Aug-12 14:30N 54°06' E 012°08'0 0.3
2017-Aug-12 13:59N 54°06' E 012°07'  
Track history (hours):
 
Tides and Currents Weather Stations Pressure Air Temp Water Temp Dewpoint Dewpoint Depression Visibility Wind Speed Wind Dir Waves Ship Positions

Abel Tasman (Netherlands)

Last reported at 2017-Aug-22 13:54 UTC. Time now 2017-Aug-22 22:38 UTC.
Position N 54°58' E 010°16'.

Length 38 m.

Type: Sailing vessel. MMSI: 222000333.

Date/timePositionNaut miles runAvg speedWind from/ knotsBaromVisibWave heightAir tempDewpointWater temp
2017-Aug-22 13:54N 54°58' E 010°16'1 2.7
2017-Aug-22 13:28N 54°57' E 010°17'2 5.0
2017-Aug-22 12:58N 54°59' E 010°19'1 2.2
2017-Aug-22 12:26N 54°58' E 010°21'2 3.8
2017-Aug-22 11:59N 54°56' E 010°21'1 1.5
2017-Aug-22 11:30N 54°56' E 010°22'1 2.8
2017-Aug-22 11:00N 54°57' E 010°24'2 3.4
2017-Aug-22 10:30N 54°55' E 010°24'3 5.7
2017-Aug-22 10:00N 54°58' E 010°27'3 5.6
2017-Aug-22 09:30N 54°60' E 010°30'2 4.8
2017-Aug-22 09:00N 55°02' E 010°32'2 3.9
2017-Aug-22 08:29N 55°03' E 010°35'1 2.4
2017-Aug-22 08:00N 55°03' E 010°37'0 0.2
2017-Aug-22 07:26N 55°03' E 010°37'0 0.0
2017-Aug-22 06:59N 55°03' E 010°37'0 0.0
2017-Aug-22 06:26N 55°03' E 010°37'0 0.0
2017-Aug-22 05:59N 55°03' E 010°37'0 0.0
2017-Aug-22 05:29N 55°03' E 010°37'0 0.0
2017-Aug-22 04:59N 55°03' E 010°37'0 0.0
2017-Aug-22 04:23N 55°03' E 010°37'0 0.0
2017-Aug-22 03:50N 55°03' E 010°37'0 0.0
2017-Aug-22 03:23N 55°03' E 010°37'0 0.0
2017-Aug-22 02:59N 55°03' E 010°37'0 0.0
2017-Aug-22 02:23N 55°03' E 010°37'0 0.0
2017-Aug-22 01:59N 55°03' E 010°37'0 0.0
2017-Aug-22 01:29N 55°03' E 010°37'0 0.0
2017-Aug-22 00:59N 55°03' E 010°37'0 0.0
2017-Aug-22 00:29N 55°03' E 010°37'0 0.0
2017-Aug-21 23:59N 55°03' E 010°37'0 0.0
2017-Aug-21 23:29N 55°03' E 010°37'0 0.0
2017-Aug-21 22:59N 55°03' E 010°37'0 0.0
2017-Aug-21 22:29N 55°03' E 010°37'0 0.0
2017-Aug-21 21:56N 55°03' E 010°37'0 0.0
2017-Aug-21 21:29N 55°03' E 010°37'0 0.0
2017-Aug-21 20:59N 55°03' E 010°37'0 0.0
2017-Aug-21 20:29N 55°03' E 010°37'0 0.0
2017-Aug-21 19:59N 55°03' E 010°37'0 0.0
2017-Aug-21 19:29N 55°03' E 010°37'0 0.0
2017-Aug-21 18:56N 55°03' E 010°37'0 0.0
2017-Aug-21 18:29N 55°03' E 010°37'0 0.0
2017-Aug-21 17:59N 55°03' E 010°37'0 0.0
2017-Aug-21 17:23N 55°03' E 010°37'0 0.0
2017-Aug-21 16:59N 55°03' E 010°37'0 0.0
2017-Aug-21 16:29N 55°03' E 010°37'0 0.0
2017-Aug-21 15:59N 55°03' E 010°37'0 0.0
2017-Aug-21 15:29N 55°03' E 010°37'0 0.0
2017-Aug-21 14:59N 55°03' E 010°37'0 0.0
2017-Aug-21 14:29N 55°03' E 010°37'0 0.0
2017-Aug-21 13:59N 55°03' E 010°37'0 0.2
2017-Aug-21 13:28N 55°03' E 010°37'2 5.0
2017-Aug-21 13:00N 55°02' E 010°40'3 5.2
2017-Aug-21 12:30N 55°00' E 010°44'2 3.4
2017-Aug-21 12:01N 55°02' E 010°45'3 5.2
2017-Aug-21 11:31N 55°04' E 010°47'3 5.7
2017-Aug-21 11:01N 55°07' E 010°48'3 5.2
2017-Aug-21 10:30N 55°10' E 010°49'3 6.5
2017-Aug-21 09:58N 55°13' E 010°50'3 6.2
2017-Aug-21 09:30N 55°16' E 010°49'2 4.7
2017-Aug-21 08:59N 55°18' E 010°48'0 0.7
2017-Aug-21 08:28N 55°18' E 010°47'0 0.0
2017-Aug-21 07:58N 55°18' E 010°47'0 0.0
2017-Aug-21 07:28N 55°18' E 010°47'0 0.0
2017-Aug-21 06:59N 55°18' E 010°47'0 0.0
2017-Aug-21 06:17N 55°18' E 010°47'0 0.0
2017-Aug-21 05:47N 55°18' E 010°47'0 0.0
2017-Aug-21 05:26N 55°18' E 010°47'0 0.0
2017-Aug-21 04:56N 55°18' E 010°47'0 0.0
2017-Aug-21 04:29N 55°18' E 010°47'0 0.0
2017-Aug-21 03:59N 55°18' E 010°47'0 0.0
2017-Aug-21 03:20N 55°18' E 010°47'0 0.0
2017-Aug-21 02:59N 55°18' E 010°47'0 0.0
2017-Aug-21 02:29N 55°18' E 010°47'0 0.0
2017-Aug-21 01:53N 55°18' E 010°47'0 0.0
2017-Aug-21 01:26N 55°18' E 010°47'0 0.0
2017-Aug-21 00:59N 55°18' E 010°47'0 0.0
2017-Aug-21 00:23N 55°18' E 010°47'0 0.0
2017-Aug-20 23:59N 55°18' E 010°47'0 0.0
2017-Aug-20 23:26N 55°18' E 010°47'0 0.0
2017-Aug-20 22:53N 55°18' E 010°47'0 0.0
2017-Aug-20 22:17N 55°18' E 010°47'0 0.1
2017-Aug-20 21:59N 55°18' E 010°47'0 0.0
2017-Aug-20 21:20N 55°18' E 010°47'0 0.0
2017-Aug-20 20:53N 55°18' E 010°47'0 0.0
2017-Aug-20 20:23N 55°18' E 010°47'0 0.0
2017-Aug-20 19:56N 55°18' E 010°47'0 0.0
2017-Aug-20 19:29N 55°18' E 010°47'0 0.0
2017-Aug-20 18:50N 55°18' E 010°47'0 0.0
2017-Aug-20 16:11N 55°18' E 010°47'0 0.2
2017-Aug-20 16:00N 55°18' E 010°47'3 5.2
2017-Aug-20 15:30N 55°17' E 010°51'2 4.5
2017-Aug-20 15:00N 55°15' E 010°54'4 7.4
2017-Aug-20 14:30N 55°12' E 010°56'4 7.1
2017-Aug-20 14:00N 55°08' E 010°58'3 5.7
2017-Aug-20 13:30N 55°06' E 010°58'3 6.2
2017-Aug-20 13:00N 55°03' E 010°57'3 6.7
2017-Aug-20 12:30N 54°59' E 010°55'3 5.9
2017-Aug-20 12:00N 54°57' E 010°54'3 5.9
2017-Aug-20 11:30N 54°54' E 010°52'2 4.9
2017-Aug-20 11:00N 54°51' E 010°51'3 5.8
2017-Aug-20 10:30N 54°48' E 010°52'4 7.4
2017-Aug-20 10:00N 54°46' E 010°56'3 6.4
2017-Aug-20 09:30N 54°44' E 011°01'3 6.1
2017-Aug-20 09:00N 54°42' E 011°05'3 5.6
2017-Aug-20 08:30N 54°41' E 011°10'3 5.4
2017-Aug-20 08:00N 54°40' E 011°14'3 5.4
2017-Aug-20 07:30N 54°39' E 011°18'1 2.9
2017-Aug-20 06:59N 54°39' E 011°21'0 0.1
2017-Aug-20 06:29N 54°39' E 011°21'0 0.0
2017-Aug-20 05:59N 54°39' E 011°21'0 0.0
2017-Aug-20 05:29N 54°39' E 011°21'0 0.0
2017-Aug-20 04:59N 54°39' E 011°21'0 0.0
2017-Aug-20 04:29N 54°39' E 011°21'0 0.0
2017-Aug-20 03:59N 54°39' E 011°21'0 0.0
2017-Aug-20 03:29N 54°39' E 011°21'0 0.0
2017-Aug-20 02:59N 54°39' E 011°21'0 0.0
2017-Aug-20 02:29N 54°39' E 011°21'0 0.0
2017-Aug-20 01:59N 54°39' E 011°21'0 0.0
2017-Aug-20 01:29N 54°39' E 011°21'0 0.0
2017-Aug-20 00:59N 54°39' E 011°21'0 0.0
2017-Aug-20 00:29N 54°39' E 011°21'0 0.0
2017-Aug-19 23:59N 54°39' E 011°21'0 0.0
2017-Aug-19 23:29N 54°39' E 011°21'0 0.0
2017-Aug-19 22:59N 54°39' E 011°21'0 0.0
2017-Aug-19 22:29N 54°39' E 011°21'0 0.0
2017-Aug-19 21:59N 54°39' E 011°21'0 0.0
2017-Aug-19 21:29N 54°39' E 011°21'0 0.0
2017-Aug-19 20:59N 54°39' E 011°21'0 0.0
2017-Aug-19 20:29N 54°39' E 011°21'0 0.0
2017-Aug-19 19:59N 54°39' E 011°21'0 0.0
2017-Aug-19 19:29N 54°39' E 011°21'0 0.0
2017-Aug-19 18:59N 54°39' E 011°21'0 0.0
2017-Aug-19 18:29N 54°39' E 011°21'0 0.0
2017-Aug-19 17:59N 54°39' E 011°21'0 0.0
2017-Aug-19 17:29N 54°39' E 011°21'0 0.0
2017-Aug-19 16:59N 54°39' E 011°21'1 2.0
2017-Aug-19 16:30N 54°38' E 011°22'3 5.0
2017-Aug-19 16:00N 54°36' E 011°22'3 6.6
2017-Aug-19 15:30N 54°33' E 011°23'3 5.2
2017-Aug-19 15:00N 54°31' E 011°26'7 7.0
2017-Aug-19 14:00N 54°26' E 011°35'4 6.5
2017-Aug-19 13:24N 54°24' E 011°40'3 6.8
2017-Aug-19 12:54N 54°21' E 011°45'8 6.6
2017-Aug-19 11:44N 54°17' E 011°55'2 6.6
2017-Aug-19 11:30N 54°16' E 011°57'2 4.9
2017-Aug-19 11:00N 54°14' E 012°01'3 3.5
2017-Aug-19 10:13N 54°12' E 012°04'1 3.3
2017-Aug-19 10:00N 54°12' E 012°05'6 0.6
2017-Aug-18 23:46N 54°06' E 012°08'0 0.0
2017-Aug-18 23:30N 54°06' E 012°08'0 0.0
2017-Aug-18 11:54N 54°06' E 012°08'5 1.8
2017-Aug-18 09:14N 54°10' E 012°06'1 2.5
2017-Aug-18 08:55N 54°11' E 012°06'0 0.2
2017-Aug-18 08:16N 54°11' E 012°06'0 0.0
2017-Aug-18 07:58N 54°11' E 012°06'0 0.0
2017-Aug-18 07:25N 54°11' E 012°06'0 0.0
2017-Aug-18 01:46N 54°11' E 012°06'0 0.0
2017-Aug-18 01:28N 54°11' E 012°06'0 0.0
2017-Aug-17 21:31N 54°11' E 012°06'0 0.1
2017-Aug-17 21:28N 54°11' E 012°06'2 0.3
2017-Aug-17 14:17N 54°12' E 012°03'2 6.2
2017-Aug-17 14:00N 54°12' E 011°60'3 6.9
2017-Aug-17 13:30N 54°11' E 011°54'3 6.5
2017-Aug-17 13:01N 54°11' E 011°49'9 6.7
2017-Aug-17 11:38N 54°07' E 011°34'1 7.2
2017-Aug-17 11:30N 54°06' E 011°33'4 7.3
2017-Aug-17 11:00N 54°04' E 011°28'4 7.1
2017-Aug-17 10:30N 54°02' E 011°24'3 5.1
2017-Aug-17 10:00N 53°59' E 011°22'2 3.8
2017-Aug-17 09:30N 53°58' E 011°23'2 3.6
2017-Aug-17 09:00N 53°56' E 011°25'2 3.9
2017-Aug-17 08:30N 53°55' E 011°26'1 1.7
2017-Aug-17 07:59N 53°54' E 011°27'0 0.0
2017-Aug-17 07:29N 53°54' E 011°27'0 0.0
2017-Aug-17 06:59N 53°54' E 011°27'0 0.0
2017-Aug-17 06:29N 53°54' E 011°27'0 0.0
2017-Aug-17 05:59N 53°54' E 011°27'0 0.0
2017-Aug-17 05:29N 53°54' E 011°27'0 0.0
2017-Aug-17 04:59N 53°54' E 011°27'0 0.0
2017-Aug-17 04:29N 53°54' E 011°27'0 0.0
2017-Aug-17 03:59N 53°54' E 011°27'0 0.0
2017-Aug-17 03:29N 53°54' E 011°27'0 0.0
2017-Aug-17 02:59N 53°54' E 011°27'0 0.0
2017-Aug-17 02:29N 53°54' E 011°27'0 0.0
2017-Aug-17 01:59N 53°54' E 011°27'0 0.0
2017-Aug-17 01:29N 53°54' E 011°27'0 0.0
2017-Aug-17 00:59N 53°54' E 011°27'0 0.0
2017-Aug-17 00:29N 53°54' E 011°27'0 0.0
2017-Aug-16 23:59N 53°54' E 011°27'0 0.0
2017-Aug-16 23:29N 53°54' E 011°27'0 0.0
2017-Aug-16 22:59N 53°54' E 011°27'0 0.0
2017-Aug-16 22:29N 53°54' E 011°27'0 0.0
2017-Aug-16 21:59N 53°54' E 011°27'0 0.0
2017-Aug-16 21:29N 53°54' E 011°27'0 0.0
2017-Aug-16 20:59N 53°54' E 011°27'0 0.0
2017-Aug-16 20:29N 53°54' E 011°27'0 0.0
2017-Aug-16 19:59N 53°54' E 011°27'0 0.0
2017-Aug-16 19:29N 53°54' E 011°27'0 0.0
2017-Aug-16 18:59N 53°54' E 011°27'0 0.0
2017-Aug-16 18:29N 53°54' E 011°27'0 0.0
2017-Aug-16 17:59N 53°54' E 011°27'0 0.0
2017-Aug-16 17:29N 53°54' E 011°27'0 0.0
2017-Aug-16 16:59N 53°54' E 011°27'0 0.0
2017-Aug-16 16:29N 53°54' E 011°27'0 0.0
2017-Aug-16 15:59N 53°54' E 011°27'0 0.0
2017-Aug-16 15:29N 53°54' E 011°27'0 0.0
2017-Aug-16 14:59N 53°54' E 011°27'1 1.8
2017-Aug-16 14:31N 53°55' E 011°26'2 4.0
2017-Aug-16 14:01N 53°56' E 011°25'2 4.2
2017-Aug-16 13:30N 53°58' E 011°23'3 5.0
2017-Aug-16 13:01N 54°00' E 011°20'2 3.1
2017-Aug-16 12:28N 54°02' E 011°19'2 5.0
2017-Aug-16 12:00N 54°02' E 011°15'3 5.2
2017-Aug-16 11:30N 54°02' E 011°11'2 0.1
2017-Aug-15 12:08N 54°04' E 011°12'1 5.6
2017-Aug-15 12:00N 54°04' E 011°14'3 5.8
2017-Aug-15 11:30N 54°05' E 011°18'3 6.1
2017-Aug-15 10:59N 54°06' E 011°23'3 6.2
2017-Aug-15 10:31N 54°07' E 011°28'11 6.6
2017-Aug-15 08:52N 54°10' E 011°46'1 2.6
2017-Aug-15 08:31N 54°09' E 011°47'0 0.5
2017-Aug-15 08:00N 54°09' E 011°46'0 0.0
2017-Aug-15 07:28N 54°09' E 011°46'0 0.0
2017-Aug-15 06:58N 54°09' E 011°46'0 0.0
2017-Aug-15 06:28N 54°09' E 011°46'0 0.0
2017-Aug-15 05:52N 54°09' E 011°46'0 0.0
2017-Aug-15 05:28N 54°09' E 011°46'0 0.0
2017-Aug-15 04:58N 54°09' E 011°46'0 0.0
2017-Aug-15 04:28N 54°09' E 011°46'0 0.0
2017-Aug-15 03:58N 54°09' E 011°46'0 0.0
2017-Aug-15 02:37N 54°09' E 011°46'0 0.0
2017-Aug-15 02:07N 54°09' E 011°46'0 0.0
2017-Aug-15 00:46N 54°09' E 011°46'0 0.0
2017-Aug-15 00:25N 54°09' E 011°46'0 0.0
2017-Aug-14 23:58N 54°09' E 011°46'0 0.0
2017-Aug-14 23:01N 54°09' E 011°46'0 0.0
2017-Aug-14 22:58N 54°09' E 011°46'0 0.0
2017-Aug-14 22:28N 54°09' E 011°46'0 0.0
2017-Aug-14 21:58N 54°09' E 011°46'0 0.0
2017-Aug-14 21:28N 54°09' E 011°46'0 0.0
2017-Aug-14 20:58N 54°09' E 011°46'0 0.0
2017-Aug-14 20:07N 54°09' E 011°46'0 0.0
2017-Aug-14 19:46N 54°09' E 011°46'0 0.0
2017-Aug-14 19:28N 54°09' E 011°46'0 0.0
2017-Aug-14 18:58N 54°09' E 011°46'0 0.0
2017-Aug-14 18:16N 54°09' E 011°46'0 0.0
2017-Aug-14 17:58N 54°09' E 011°46'0 0.0
2017-Aug-14 16:46N 54°09' E 011°46'0 0.0
2017-Aug-14 16:28N 54°09' E 011°46'0 0.0
2017-Aug-14 16:00N 54°09' E 011°46'0 0.0
2017-Aug-14 15:30N 54°09' E 011°46'9 4.5
2017-Aug-14 13:35N 54°17' E 011°51'0 4.1
2017-Aug-14 13:30N 54°18' E 011°51'2 5.0
2017-Aug-14 13:00N 54°18' E 011°55'4 4.6
2017-Aug-14 12:10N 54°18' E 012°02'1 4.4
2017-Aug-14 11:56N 54°17' E 012°03'2 5.1
2017-Aug-14 11:30N 54°15' E 012°05'8 4.8
2017-Aug-14 09:56N 54°08' E 012°06'2 0.7
2017-Aug-14 06:29N 54°06' E 012°08'0 0.0
2017-Aug-14 05:56N 54°06' E 012°08'0 0.0
2017-Aug-14 05:29N 54°06' E 012°08'0 0.0
2017-Aug-14 04:56N 54°06' E 012°08'0 0.0
2017-Aug-13 23:47N 54°06' E 012°08'0 0.0
2017-Aug-13 23:29N 54°06' E 012°08'0 0.0
2017-Aug-13 15:14N 54°06' E 012°08'0 0.9
2017-Aug-13 15:00N 54°06' E 012°07'5 3.8
2017-Aug-13 13:44N 54°10' E 012°06'1 4.1
2017-Aug-13 13:25N 54°12' E 012°06'2 3.9
2017-Aug-13 12:57N 54°13' E 012°07'3 4.7
2017-Aug-13 12:13N 54°10' E 012°06'3 3.6
2017-Aug-13 11:30N 54°07' E 012°06'2 3.7
2017-Aug-13 10:56N 54°06' E 012°08'0 0.0
2017-Aug-13 10:29N 54°06' E 012°08'0 0.0
2017-Aug-13 08:41N 54°06' E 012°07'0 0.0
2017-Aug-13 08:26N 54°06' E 012°07'0 0.0
2017-Aug-13 06:15N 54°06' E 012°08'0 0.0
2017-Aug-13 05:57N 54°06' E 012°08'0 0.0
2017-Aug-13 03:57N 54°06' E 012°08'0 0.0
2017-Aug-13 02:30N 54°06' E 012°08'0 0.0
2017-Aug-13 00:18N 54°06' E 012°08'0 0.0
2017-Aug-13 00:00N 54°06' E 012°08'0 0.0
2017-Aug-12 21:48N 54°06' E 012°08'0 0.7
2017-Aug-12 21:26N 54°06' E 012°07'2 4.9
2017-Aug-12 21:00N 54°08' E 012°06'2 4.5
2017-Aug-12 20:29N 54°10' E 012°06'0 0.3
2017-Aug-12 19:05N 54°10' E 012°06'2 3.0
2017-Aug-12 18:17N 54°08' E 012°06'1 4.2
2017-Aug-12 18:00N 54°07' E 012°06'2 2.7
2017-Aug-12 17:26N 54°06' E 012°07'0 0.2
2017-Aug-12 16:44N 54°06' E 012°08'0 0.0
2017-Aug-12 16:10N 54°06' E 012°08'0 0.0
2017-Aug-12 15:40N 54°06' E 012°08'0 0.0
2017-Aug-12 14:43N 54°06' E 012°08'0 0.0
2017-Aug-12 14:30N 54°06' E 012°08'0 0.3
2017-Aug-12 13:59N 54°06' E 012°07'  

Dump ship's entire track history